createdAt,value
2018-04-08T00:07:00.390Z,76.90
2018-04-08T00:09:30.296Z,76.80
2018-04-08T00:12:00.135Z,76.90
2018-04-08T00:14:31.598Z,77.10
2018-04-08T00:17:02.335Z,77.80
2018-04-08T00:19:32.954Z,78.30
2018-04-08T00:22:03.590Z,78.40
2018-04-08T00:24:34.227Z,78.60
2018-04-08T00:27:05.683Z,78.80
2018-04-08T00:29:36.714Z,78.90
2018-04-08T00:32:08.133Z,79.10
2018-04-08T00:34:38.010Z,79.10
2018-04-08T00:37:08.397Z,78.10
2018-04-08T00:39:39.045Z,73.40
2018-04-08T00:42:08.943Z,73.20
2018-04-08T00:44:39.568Z,69.40
2018-04-08T00:47:09.416Z,69.40
2018-04-08T00:49:40.113Z,68.60
2018-04-08T00:52:11.416Z,73.70
2018-04-08T00:54:42.158Z,73.70
2018-04-08T00:57:12.522Z,73.70
2018-04-08T00:59:42.952Z,69.80
2018-04-08T01:02:14.289Z,70.40
2018-04-08T01:04:45.152Z,70.30
2018-04-08T01:07:17.651Z,75.10
2018-04-08T01:09:47.834Z,75.10
2018-04-08T01:12:19.032Z,70.80
2018-04-08T01:14:49.330Z,70.70
2018-04-08T01:17:19.872Z,70.00
2018-04-08T01:19:50.316Z,69.20
2018-04-08T01:22:20.805Z,67.90
2018-04-08T01:24:51.506Z,71.90
2018-04-08T01:27:22.419Z,71.90
2018-04-08T01:29:53.855Z,70.80
2018-04-08T01:32:24.163Z,70.80
2018-04-08T01:34:54.711Z,68.70
2018-04-08T01:37:25.818Z,69.30
2018-04-08T01:39:57.103Z,71.30
2018-04-08T01:42:27.023Z,71.30
2018-04-08T01:44:57.497Z,70.50
2018-04-08T01:47:28.129Z,69.80
2018-04-08T01:49:59.209Z,70.00
2018-04-08T01:52:29.606Z,70.00
2018-04-08T01:55:00.751Z,70.00
2018-04-08T01:57:31.626Z,70.30
2018-04-08T02:00:01.603Z,70.20
2018-04-08T02:02:32.215Z,70.70
2018-04-08T02:05:02.136Z,70.70
2018-04-08T02:07:32.740Z,71.30
2018-04-08T02:10:02.581Z,71.30
2018-04-08T02:12:32.506Z,71.60
2018-04-08T02:15:03.129Z,72.40
2018-04-08T02:17:34.803Z,72.50
2018-04-08T02:20:06.131Z,72.40
2018-04-08T02:22:36.829Z,73.00
2018-04-08T02:25:06.688Z,72.90
2018-04-08T02:27:37.518Z,73.40
2018-04-08T02:30:08.647Z,73.50
2018-04-08T02:32:39.270Z,73.50
2018-04-08T02:35:09.186Z,73.50
2018-04-08T02:37:41.255Z,73.70
2018-04-08T02:40:11.188Z,73.70
2018-04-08T02:42:41.813Z,74.30
2018-04-08T02:45:12.553Z,74.50
2018-04-08T02:47:43.807Z,74.80
2018-04-08T02:50:14.413Z,75.20
2018-04-08T02:52:44.369Z,75.10
2018-04-08T02:55:34.644Z,75.30
2018-04-08T02:58:05.278Z,75.60
2018-04-08T03:00:35.190Z,75.60
2018-04-08T03:03:05.924Z,75.70
2018-04-08T03:05:36.846Z,75.70
2018-04-08T03:08:07.705Z,75.60
2018-04-08T03:10:38.784Z,75.60
2018-04-08T03:13:08.723Z,75.70
2018-04-08T03:15:39.967Z,75.80
2018-04-08T03:18:09.855Z,75.80
2018-04-08T03:20:39.833Z,76.00
2018-04-08T03:23:10.559Z,76.10
2018-04-08T03:25:41.198Z,76.00
2018-04-08T03:28:12.955Z,76.10
2018-04-08T03:30:43.695Z,76.10
2018-04-08T03:33:13.616Z,76.10
2018-04-08T03:35:43.500Z,76.20
2018-04-08T03:38:13.778Z,76.20
2018-04-08T03:40:44.663Z,76.30
2018-04-08T03:43:16.155Z,76.40
2018-04-08T03:45:46.354Z,76.40
2018-04-08T03:48:16.740Z,76.40
2018-04-08T03:50:47.226Z,76.30
2018-04-08T03:53:17.611Z,76.50
2018-04-08T03:55:47.860Z,76.40
2018-04-08T03:58:18.371Z,76.40
2018-04-08T04:00:49.699Z,76.30
2018-04-08T04:03:20.737Z,76.30
2018-04-08T04:05:50.797Z,76.20
2018-04-08T04:08:20.607Z,76.10
2018-04-08T04:10:50.722Z,76.10
2018-04-08T04:13:22.171Z,76.10
2018-04-08T04:15:53.727Z,76.10
2018-04-08T04:18:35.114Z,76.10
2018-04-08T04:21:17.520Z,75.90
2018-04-08T04:23:58.596Z,75.90
2018-04-08T04:26:34.119Z,75.90
2018-04-08T04:29:05.521Z,76.20
2018-04-08T04:31:36.027Z,75.80
2018-04-08T04:34:06.749Z,75.90
2018-04-08T04:36:38.162Z,75.90
2018-04-08T04:39:08.402Z,75.90
2018-04-08T04:41:39.039Z,75.80
2018-04-08T04:44:10.053Z,75.80
2018-04-08T04:46:41.053Z,75.80
2018-04-08T04:49:11.219Z,75.80
2018-04-08T04:51:41.086Z,75.80
2018-04-08T04:54:11.498Z,75.70
2018-04-08T04:56:42.183Z,75.80
2018-04-08T04:59:12.033Z,75.70
2018-04-08T05:01:43.715Z,75.80
2018-04-08T05:04:14.228Z,75.80
2018-04-08T05:06:45.559Z,75.80
2018-04-08T05:09:15.531Z,75.80
2018-04-08T05:11:45.399Z,75.80
2018-04-08T05:14:16.953Z,76.00
2018-04-08T05:16:47.935Z,75.80
2018-04-08T05:19:18.931Z,75.90
2018-04-08T05:21:50.274Z,75.80
2018-04-08T05:24:21.365Z,75.80
2018-04-08T05:26:51.448Z,75.80
2018-04-08T05:29:21.857Z,75.80
2018-04-08T05:31:52.866Z,75.80
2018-04-08T05:34:24.127Z,75.80
2018-04-08T05:36:54.578Z,75.80
2018-04-08T05:39:25.875Z,75.80
2018-04-08T05:41:56.424Z,75.80
2018-04-08T05:44:26.785Z,75.70
2018-04-08T05:46:59.748Z,75.70
2018-04-08T05:49:30.841Z,75.70
2018-04-08T05:52:00.738Z,75.60
2018-04-08T05:54:30.584Z,75.50
2018-04-08T05:57:00.440Z,75.50
2018-04-08T05:59:32.836Z,75.40
2018-04-08T06:02:04.449Z,75.40
2018-04-08T06:04:34.296Z,75.20
2018-04-08T06:07:04.983Z,75.30
2018-04-08T06:09:34.838Z,75.20
2018-04-08T06:12:05.566Z,75.00
2018-04-08T06:14:36.201Z,74.90
2018-04-08T06:17:09.899Z,74.80
2018-04-08T06:19:40.939Z,74.80
2018-04-08T06:22:13.334Z,74.90
2018-04-08T06:24:44.362Z,74.80
2018-04-08T06:27:15.092Z,74.60
2018-04-08T06:29:45.728Z,74.70
2018-04-08T06:32:16.504Z,74.70
2018-04-08T06:34:47.557Z,74.50
2018-04-08T06:37:17.662Z,73.60
2018-04-08T06:39:48.760Z,73.30
2018-04-08T06:42:20.591Z,73.10
2018-04-08T06:44:50.676Z,73.10
2018-04-08T06:47:21.065Z,73.30
2018-04-08T06:49:51.947Z,73.70
2018-04-08T06:52:21.808Z,73.60
2018-04-08T06:54:52.437Z,74.10
2018-04-08T06:57:23.045Z,74.10
2018-04-08T06:59:53.007Z,74.10
2018-04-08T07:02:24.347Z,74.10
2018-04-08T07:04:54.566Z,74.00
2018-04-08T07:07:26.119Z,74.00
2018-04-08T07:09:57.018Z,74.00
2018-04-08T07:12:27.076Z,74.00
2018-04-08T07:14:58.012Z,73.90
2018-04-08T07:17:30.419Z,73.80
2018-04-08T07:20:01.948Z,73.80
2018-04-08T07:22:31.946Z,73.70
2018-04-08T07:25:02.069Z,73.60
2018-04-08T07:27:33.213Z,73.40
2018-04-08T07:30:04.258Z,73.30
2018-04-08T07:32:35.738Z,73.40
2018-04-08T07:35:05.588Z,73.20
2018-04-08T07:37:35.443Z,73.30
2018-04-08T07:40:05.304Z,73.20
2018-04-08T07:42:35.147Z,73.20
2018-04-08T07:45:05.786Z,72.70
2018-04-08T07:47:36.400Z,72.80
2018-04-08T07:50:06.277Z,72.80
2018-04-08T07:52:36.730Z,72.80
2018-04-08T07:55:06.781Z,72.60
2018-04-08T07:57:37.468Z,72.50
2018-04-08T08:00:07.432Z,72.50
2018-04-08T08:02:38.084Z,72.40
2018-04-08T08:05:09.077Z,72.40
2018-04-08T08:07:40.370Z,72.60
2018-04-08T08:10:10.260Z,72.50
2018-04-08T08:12:40.993Z,71.80
2018-04-08T08:15:11.838Z,71.80
2018-04-08T08:17:41.740Z,71.80
2018-04-08T08:20:12.492Z,72.40
2018-04-08T08:22:42.599Z,71.70
2018-04-08T08:25:13.334Z,71.40
2018-04-08T08:27:43.541Z,71.40
2018-04-08T08:30:15.413Z,71.40
2018-04-08T08:32:46.021Z,71.40
2018-04-08T08:35:17.195Z,71.40
2018-04-08T08:37:47.816Z,71.20
2018-04-08T08:40:18.477Z,71.40
2018-04-08T08:42:48.980Z,71.30
2018-04-08T08:45:19.616Z,71.30
2018-04-08T08:47:50.355Z,71.30
2018-04-08T08:50:20.273Z,71.20
2018-04-08T08:52:50.174Z,71.30
2018-04-08T08:55:20.818Z,71.30
2018-04-08T08:57:52.127Z,71.30
2018-04-08T09:00:22.004Z,71.40
2018-04-08T09:02:52.354Z,71.40
2018-04-08T09:05:22.349Z,71.40
2018-04-08T09:07:52.226Z,71.60
2018-04-08T09:10:22.962Z,71.50
2018-04-08T09:12:53.589Z,71.60
2018-04-08T09:15:24.546Z,71.60
2018-04-08T09:17:54.743Z,71.40
2018-04-08T09:20:35.006Z,71.40
2018-04-08T09:26:06.889Z,71.20
2018-04-08T09:28:37.193Z,71.40
2018-04-08T09:31:08.201Z,71.30
2018-04-08T09:33:38.333Z,71.90
2018-04-08T09:36:08.184Z,71.20
2018-04-08T09:38:38.195Z,71.10
2018-04-08T09:41:09.752Z,71.00
2018-04-08T09:43:40.352Z,70.80
2018-04-08T09:46:10.505Z,70.80
2018-04-08T09:48:41.132Z,70.60
2018-04-08T09:51:11.763Z,70.70
2018-04-08T09:53:42.604Z,70.80
2018-04-08T09:56:13.423Z,70.80
2018-04-08T09:58:45.944Z,70.70
2018-04-08T10:01:27.154Z,70.60
2018-04-08T10:03:57.224Z,70.60
2018-04-08T10:06:27.094Z,70.80
2018-04-08T10:08:57.459Z,70.80
2018-04-08T10:11:27.458Z,70.80
2018-04-08T10:13:58.068Z,70.70
2018-04-08T10:16:28.113Z,70.60
2018-04-08T10:18:58.869Z,70.80
2018-04-08T10:21:28.867Z,70.80
2018-04-08T10:24:01.307Z,70.80
2018-04-08T10:26:31.648Z,70.80
2018-04-08T10:29:01.543Z,70.90
2018-04-08T10:31:31.919Z,70.80
2018-04-08T10:34:02.738Z,70.90
2018-04-08T10:36:37.193Z,71.00
2018-04-08T10:39:07.339Z,70.80
2018-04-08T10:41:37.287Z,71.00
2018-04-08T10:44:08.648Z,71.20
2018-04-08T10:46:38.502Z,71.00
2018-04-08T10:49:08.578Z,71.10
2018-04-08T10:51:39.462Z,71.20
2018-04-08T10:54:09.428Z,71.20
2018-04-08T10:56:40.597Z,71.20
2018-04-08T10:59:10.482Z,71.20
2018-04-08T11:01:42.226Z,71.00
2018-04-08T11:04:12.832Z,71.20
2018-04-08T11:06:42.790Z,71.20
2018-04-08T11:09:13.864Z,71.50
2018-04-08T11:11:45.726Z,71.50
2018-04-08T11:14:15.668Z,71.40
2018-04-08T11:16:45.565Z,71.50
2018-04-08T11:19:15.443Z,71.60
2018-04-08T11:21:46.261Z,71.60
2018-04-08T11:24:17.566Z,71.70
2018-04-08T11:26:47.377Z,71.70
2018-04-08T11:29:17.307Z,71.90
2018-04-08T11:31:48.281Z,71.90
2018-04-08T11:34:18.201Z,71.90
2018-04-08T11:36:48.835Z,71.90
2018-04-08T11:39:19.637Z,71.80
2018-04-08T11:41:49.632Z,72.00
2018-04-08T11:44:20.704Z,72.00
2018-04-08T11:46:56.083Z,72.20
2018-04-08T11:49:26.905Z,72.40
2018-04-08T11:51:59.437Z,73.30
2018-04-08T11:54:31.509Z,72.50
2018-04-08T11:57:07.081Z,72.50
2018-04-08T11:59:40.009Z,72.70
2018-04-08T12:02:14.238Z,72.70
2018-04-08T12:04:47.179Z,72.70
2018-04-08T12:07:21.095Z,72.90
2018-04-08T12:09:55.546Z,72.90
2018-04-08T12:12:27.884Z,73.00
2018-04-08T12:15:00.334Z,73.20
2018-04-08T12:17:32.104Z,73.20
2018-04-08T12:20:03.699Z,73.20
2018-04-08T12:22:35.886Z,73.20
2018-04-08T12:25:07.636Z,73.20
2018-04-08T12:27:41.156Z,73.20
2018-04-08T12:30:16.397Z,73.30
2018-04-08T12:32:48.393Z,73.40
2018-04-08T12:35:19.247Z,73.40
2018-04-08T12:37:50.480Z,73.40
2018-04-08T12:40:21.397Z,73.50
2018-04-08T12:42:51.690Z,73.90
2018-04-08T12:45:21.755Z,73.60
2018-04-08T12:47:52.183Z,73.60
2018-04-08T12:50:24.098Z,73.80
2018-04-08T12:52:54.079Z,73.80
2018-04-08T12:55:25.106Z,73.80
2018-04-08T12:57:55.018Z,74.00
2018-04-08T13:00:27.116Z,74.00
2018-04-08T13:02:58.124Z,74.00
2018-04-08T13:05:28.023Z,74.10
2018-04-08T13:07:59.653Z,74.10
2018-04-08T13:10:31.422Z,74.10
2018-04-08T13:13:03.523Z,74.30
2018-04-08T13:15:34.152Z,74.40
2018-04-08T13:18:04.420Z,74.40
2018-04-08T13:20:35.512Z,74.60
2018-04-08T13:23:07.284Z,74.70
2018-04-08T13:25:37.496Z,74.70
2018-04-08T13:28:09.047Z,74.60
2018-04-08T13:30:40.706Z,74.60
2018-04-08T13:33:11.492Z,74.60
2018-04-08T13:35:41.459Z,75.00
2018-04-08T13:38:11.578Z,74.80
2018-04-08T13:40:41.598Z,74.80
2018-04-08T13:43:12.836Z,74.90
2018-04-08T13:45:42.859Z,74.80
2018-04-08T13:48:14.344Z,74.90
2018-04-08T13:50:44.830Z,75.10
2018-04-08T13:53:16.992Z,75.10
2018-04-08T13:55:48.041Z,75.10
2018-04-08T13:58:19.701Z,75.30
2018-04-08T14:00:49.915Z,75.50
2018-04-08T14:03:19.916Z,75.10
2018-04-08T14:05:50.667Z,75.30
2018-04-08T14:08:21.647Z,75.30
2018-04-08T14:10:51.728Z,75.30
2018-04-08T14:13:21.636Z,75.30
2018-04-08T14:15:51.707Z,75.50
2018-04-08T14:18:21.728Z,75.60
2018-04-08T14:20:52.098Z,75.60
2018-04-08T14:23:23.154Z,75.60
2018-04-08T14:25:55.312Z,75.60
2018-04-08T14:28:26.388Z,75.80
2018-04-08T14:31:00.251Z,75.80
2018-04-08T14:33:37.837Z,75.90
2018-04-08T14:36:14.443Z,76.00
2018-04-08T14:38:48.965Z,76.00
2018-04-08T14:41:21.546Z,76.10
2018-04-08T14:43:54.022Z,76.10
2018-04-08T14:46:27.637Z,76.20
2018-04-08T14:49:00.258Z,76.30
2018-04-08T14:51:32.506Z,76.40
2018-04-08T14:54:03.393Z,76.40
2018-04-08T14:56:33.596Z,76.30
2018-04-08T14:59:04.806Z,76.30
2018-04-08T15:01:35.158Z,76.30
2018-04-08T15:04:06.848Z,76.40
2018-04-08T15:06:37.474Z,76.60
2018-04-08T15:09:09.734Z,76.40
2018-04-08T15:11:40.462Z,76.70
2018-04-08T15:14:11.540Z,76.70
2018-04-08T15:16:42.375Z,76.90
2018-04-08T15:19:13.898Z,76.80
2018-04-08T15:21:46.373Z,76.80
2018-04-08T15:24:16.727Z,77.00
2018-04-08T15:26:48.260Z,76.90
2018-04-08T15:29:19.508Z,77.10
2018-04-08T15:31:49.446Z,77.00
2018-04-08T15:34:19.537Z,77.00
2018-04-08T15:36:49.873Z,76.90
2018-04-08T15:39:19.883Z,77.00
2018-04-08T15:41:50.005Z,77.10
2018-04-08T15:44:20.940Z,77.30
2018-04-08T15:46:50.988Z,77.20
2018-04-08T15:49:21.168Z,77.20
2018-04-08T15:51:53.438Z,77.20
2018-04-08T15:54:24.111Z,77.30
2018-04-08T15:56:54.396Z,77.40
2018-04-08T15:59:25.225Z,73.40
2018-04-08T16:01:56.988Z,71.20
2018-04-08T16:04:27.739Z,70.50
2018-04-08T16:06:57.677Z,70.40
2018-04-08T16:09:27.702Z,69.00
2018-04-08T16:11:57.987Z,67.20
2018-04-08T16:14:27.970Z,65.70
2018-04-08T16:16:59.239Z,64.80
2018-04-08T16:19:30.907Z,62.90
2018-04-08T16:22:01.041Z,62.90
2018-04-08T16:24:31.843Z,59.10
2018-04-08T16:27:02.264Z,59.00
2018-04-08T16:29:32.872Z,56.80
2018-04-08T16:32:03.137Z,56.80
2018-04-08T16:34:35.012Z,55.40
2018-04-08T16:37:04.887Z,55.40
2018-04-08T16:39:34.790Z,55.00
2018-04-08T16:42:04.681Z,54.20
2018-04-08T16:44:35.285Z,53.90
2018-04-08T16:47:06.771Z,53.50
2018-04-08T16:49:36.802Z,53.50
2018-04-08T16:52:07.577Z,56.80
2018-04-08T16:54:37.390Z,58.80
2018-04-08T16:57:08.888Z,58.20
2018-04-08T16:59:38.857Z,57.30
2018-04-08T17:02:08.845Z,56.10
2018-04-08T17:04:39.447Z,55.10
2018-04-08T17:07:09.364Z,55.10
2018-04-08T17:09:39.197Z,57.10
2018-04-08T17:12:09.088Z,59.70
2018-04-08T17:14:38.885Z,61.90
2018-04-08T17:17:08.712Z,60.00
2018-04-08T17:19:38.769Z,58.30
2018-04-08T17:22:09.507Z,56.90
2018-04-08T17:24:41.226Z,57.40
2018-04-08T17:27:11.908Z,57.40
2018-04-08T17:29:42.512Z,60.00
2018-04-08T17:32:12.401Z,62.30
2018-04-08T17:34:42.213Z,62.10
2018-04-08T17:37:12.058Z,59.80
2018-04-08T17:39:42.752Z,57.60
2018-04-08T17:42:12.957Z,57.50
2018-04-08T17:44:52.127Z,60.20
2018-04-08T17:47:22.270Z,62.70
2018-04-08T17:49:54.550Z,61.80
2018-04-08T17:52:24.844Z,61.80
2018-04-08T17:57:36.589Z,59.10
2018-04-08T18:00:07.147Z,59.80
2018-04-08T18:02:36.988Z,63.00
2018-04-08T18:05:06.798Z,65.40
2018-04-08T18:07:36.681Z,62.90
2018-04-08T18:10:06.529Z,61.40
2018-04-08T18:12:36.421Z,59.60
2018-04-08T18:15:06.252Z,60.30
2018-04-08T18:17:36.149Z,63.30
2018-04-08T18:20:06.017Z,65.70
2018-04-08T18:22:36.869Z,64.80
2018-04-08T18:25:06.694Z,62.40
2018-04-08T18:27:36.571Z,61.30
2018-04-08T18:30:07.548Z,65.90
2018-04-08T18:32:37.413Z,65.90
2018-04-08T18:35:07.993Z,64.20
2018-04-08T18:37:37.848Z,64.10
2018-04-08T18:40:07.689Z,63.10
2018-04-08T18:42:38.277Z,67.30
2018-04-08T18:45:08.094Z,67.40
2018-04-08T18:47:37.943Z,69.00
2018-04-08T18:50:08.565Z,63.70
2018-04-08T18:52:39.187Z,63.80
2018-04-08T18:55:09.039Z,63.90
2018-04-08T18:57:38.835Z,66.70
2018-04-08T19:00:09.414Z,67.70
2018-04-08T19:02:39.249Z,67.70
2018-04-08T19:05:09.906Z,65.30
2018-04-08T19:07:40.502Z,67.10
2018-04-08T19:10:10.340Z,67.10
2018-04-08T19:12:40.948Z,68.60
2018-04-08T19:15:17.645Z,69.30
2018-04-08T19:17:53.450Z,63.50
2018-04-08T19:20:23.341Z,63.30
2018-04-08T19:22:53.195Z,66.30
2018-04-08T19:25:23.005Z,68.40
2018-04-08T19:27:52.859Z,69.50
2018-04-08T19:30:23.689Z,64.00
2018-04-08T19:32:54.292Z,64.80
2018-04-08T19:35:24.082Z,64.80
2018-04-08T19:37:53.894Z,67.30
2018-04-08T19:40:23.723Z,69.40
2018-04-08T19:42:53.550Z,67.70
2018-04-08T19:45:23.381Z,64.80
2018-04-08T19:47:53.991Z,67.80
2018-04-08T19:50:23.888Z,67.80
2018-04-08T19:52:53.744Z,69.90
2018-04-08T19:55:24.319Z,65.60
2018-04-08T19:57:54.139Z,65.50
2018-04-08T20:00:23.974Z,63.70
2018-04-08T20:02:53.932Z,66.20
2018-04-08T20:05:24.599Z,68.40
2018-04-08T20:07:54.340Z,69.20
2018-04-08T20:10:24.982Z,67.10
2018-04-08T20:12:55.593Z,68.90
2018-04-08T20:15:25.467Z,68.90
2018-04-08T20:17:55.270Z,70.90
2018-04-08T20:20:25.255Z,69.30
2018-04-08T20:22:55.842Z,68.80
2018-04-08T20:25:25.702Z,68.80
2018-04-08T20:27:56.337Z,71.90
2018-04-08T20:30:26.243Z,71.90
2018-04-08T20:32:56.838Z,66.40
2018-04-08T20:35:26.701Z,66.40
2018-04-08T20:37:56.489Z,68.60
2018-04-08T20:40:26.468Z,70.90
2018-04-08T20:42:56.329Z,72.80
2018-04-08T20:45:27.436Z,68.40
2018-04-08T20:47:57.235Z,68.30
2018-04-08T20:50:27.033Z,70.80
2018-04-08T20:53:02.529Z,72.60
2018-04-08T20:55:33.148Z,68.10
2018-04-08T20:58:02.995Z,68.00
2018-04-08T21:00:33.115Z,69.10
2018-04-08T21:03:03.142Z,71.30
2018-04-08T21:05:33.133Z,73.30
2018-04-08T21:08:04.283Z,68.30
2018-04-08T21:10:34.110Z,68.30
2018-04-08T21:13:03.984Z,70.70
2018-04-08T21:15:34.887Z,72.80
2018-04-08T21:18:04.756Z,72.20
2018-04-08T21:20:35.437Z,69.80
2018-04-08T21:23:05.881Z,69.70
2018-04-08T21:25:35.723Z,72.20
2018-04-08T21:28:07.300Z,70.90
2018-04-08T21:30:37.092Z,70.90
2018-04-08T21:33:07.651Z,72.80
2018-04-08T21:35:37.649Z,72.70
2018-04-08T21:38:07.491Z,74.40
2018-04-08T21:40:37.356Z,73.00
2018-04-08T21:43:08.625Z,69.60
2018-04-08T21:45:38.612Z,72.10
2018-04-08T21:48:08.425Z,74.00
2018-04-08T21:50:38.289Z,74.40
2018-04-08T21:53:08.262Z,70.80
2018-04-08T21:55:38.983Z,71.40
2018-04-08T21:58:08.922Z,73.60
2018-04-08T22:00:39.533Z,72.40
2018-04-08T22:03:09.414Z,72.40
2018-04-08T22:05:39.366Z,71.30
2018-04-08T22:08:09.182Z,73.30
2018-04-08T22:10:39.088Z,75.00
2018-04-08T22:13:08.927Z,74.10
2018-04-08T22:15:39.938Z,72.20
2018-04-08T22:18:09.750Z,72.10
2018-04-08T22:20:39.616Z,74.20
2018-04-08T22:23:11.627Z,72.60
2018-04-08T22:25:41.453Z,72.50
2018-04-08T22:28:12.064Z,73.40
2018-04-08T22:30:41.883Z,73.40
2018-04-08T22:33:13.251Z,75.10
2018-04-08T22:35:43.861Z,70.40
2018-04-08T22:38:13.743Z,70.40
2018-04-08T22:40:43.648Z,72.30
2018-04-08T22:43:14.296Z,74.40
2018-04-08T22:45:44.446Z,74.60
2018-04-08T22:48:14.228Z,71.30
2018-04-08T22:50:44.122Z,72.20
2018-04-08T22:53:13.985Z,74.20
2018-04-08T22:55:43.805Z,75.70
2018-04-08T22:58:14.421Z,71.80
2018-04-08T23:00:44.231Z,71.80
2018-04-08T23:03:15.567Z,75.70
2018-04-08T23:05:45.346Z,75.70
2018-04-08T23:08:15.165Z,73.70
2018-04-08T23:10:45.074Z,72.40
2018-04-08T23:13:15.056Z,74.70
2018-04-08T23:15:45.759Z,75.50
2018-04-08T23:18:15.661Z,75.40
2018-04-08T23:20:45.645Z,72.00
2018-04-08T23:23:15.398Z,74.10
2018-04-08T23:25:45.362Z,75.60
2018-04-08T23:28:16.505Z,72.40
2018-04-08T23:30:48.363Z,74.50
2018-04-08T23:33:18.991Z,76.40
2018-04-08T23:35:49.571Z,76.50
2018-04-08T23:38:19.434Z,76.50
2018-04-08T23:40:50.060Z,75.90
2018-04-08T23:43:20.643Z,77.70
2018-04-08T23:45:50.510Z,77.70
2018-04-08T23:48:21.103Z,74.00
2018-04-08T23:50:51.546Z,73.20
2018-04-08T23:53:21.312Z,75.40
2018-04-08T23:55:51.306Z,77.30
2018-04-08T23:58:21.135Z,77.50
